createdAt,value
2022-12-23T00:05:13.478Z,2.9998779296875
2022-12-23T00:15:13.263Z,4.0008544921875
2022-12-23T00:25:13.191Z,4.0008544921875
2022-12-23T00:35:13.113Z,2.9998779296875
2022-12-23T00:45:13.051Z,2.90069580078125
2022-12-23T00:55:12.936Z,4.8004150390625
2022-12-23T01:05:12.910Z,1.800537109375
2022-12-23T01:15:12.930Z,3.900146484375
2022-12-23T01:25:12.723Z,4.19921875
2022-12-23T01:35:13.355Z,4.19921875
2022-12-23T01:45:12.670Z,3.69873046875
2022-12-23T01:55:12.544Z,3.60107421875
2022-12-23T02:05:12.465Z,6.500244140625
2022-12-23T02:15:12.354Z,6.298828125
2022-12-23T02:25:12.305Z,6.70166015625
2022-12-23T02:35:12.253Z,19.29931640625
2022-12-23T02:45:12.173Z,6.70166015625
2022-12-23T02:55:12.093Z,8.30078125
2022-12-23T03:05:11.981Z,9.002685546875
2022-12-23T03:15:11.905Z,13.7939453125
2022-12-23T03:25:11.863Z,10.101318359375
2022-12-23T03:35:11.797Z,9.698486328125
2022-12-23T03:45:37.674Z,7.3974609375
2022-12-23T03:55:11.705Z,4.69970703125
2022-12-23T04:05:11.567Z,5.3009033203125
2022-12-23T04:15:13.293Z,8.3984375
2022-12-23T04:25:11.585Z,8.001708984375
2022-12-23T04:35:11.386Z,8.80126953125
2022-12-23T04:45:11.287Z,7.3974609375
2022-12-23T04:55:11.235Z,7.3974609375
2022-12-23T05:05:11.145Z,7.89794921875
2022-12-23T05:15:11.071Z,6.89697265625
2022-12-23T05:25:11.107Z,8.697509765625
2022-12-23T05:35:10.902Z,6.1004638671875
2022-12-23T05:45:10.868Z,8.197021484375
2022-12-23T05:55:10.768Z,9.100341796875
2022-12-23T06:05:10.701Z,12.40234375
2022-12-23T06:15:10.613Z,8.3984375
2022-12-23T06:25:10.542Z,10.699462890625
2022-12-23T06:35:10.457Z,9.600830078125
2022-12-23T06:45:10.392Z,10.302734375
2022-12-23T06:55:10.441Z,9.002685546875
2022-12-23T07:05:10.287Z,7.098388671875
2022-12-23T07:15:10.196Z,7.598876953125
2022-12-23T07:25:10.113Z,9.4970703125
2022-12-23T07:35:10.043Z,11.102294921875
2022-12-23T07:45:09.942Z,10.699462890625
2022-12-23T07:55:09.903Z,18.798828125
2022-12-23T08:05:09.889Z,16.10107421875
2022-12-23T08:15:09.734Z,15.6982421875
2022-12-23T08:25:09.714Z,20.30029296875
2022-12-23T08:35:09.617Z,19.6044921875
2022-12-23T08:45:09.541Z,20.10498046875
2022-12-23T08:55:09.456Z,23.59619140625
2022-12-23T09:05:09.368Z,19.20166015625
2022-12-23T09:15:09.320Z,19.49462890625
2022-12-23T09:25:09.229Z,18.505859375
2022-12-23T09:35:09.177Z,23.40087890625
2022-12-23T09:45:09.081Z,20.49560546875
2022-12-23T09:55:09.000Z,16.29638671875
2022-12-23T10:05:08.946Z,16.6015625
2022-12-23T10:15:08.889Z,26.0009765625
2022-12-23T10:25:08.801Z,15.00244140625
2022-12-23T10:35:08.836Z,26.904296875
2022-12-23T10:45:08.657Z,24.59716796875
2022-12-23T10:55:08.574Z,18.20068359375
2022-12-23T11:05:08.496Z,16.19873046875
2022-12-23T11:15:08.438Z,20.49560546875
2022-12-23T11:25:08.341Z,22.705078125
2022-12-23T11:35:08.326Z,21.8994140625
2022-12-23T11:45:08.208Z,31.298828125
2022-12-23T11:55:08.110Z,22.39990234375
2022-12-23T12:05:08.046Z,18.39599609375
2022-12-23T12:15:07.963Z,16.19873046875
2022-12-23T12:25:07.884Z,15.29541015625
2022-12-23T12:35:07.811Z,20.80078125
2022-12-23T12:45:07.734Z,20.39794921875
2022-12-23T12:55:07.689Z,19.49462890625
2022-12-23T13:05:07.583Z,22.705078125
2022-12-23T13:15:07.548Z,18.10302734375
2022-12-23T13:25:07.439Z,16.50390625
2022-12-23T13:35:07.383Z,16.6015625
2022-12-23T13:45:07.305Z,15.19775390625
2022-12-23T13:55:07.348Z,6.89697265625
2022-12-23T14:05:11.728Z,9.002685546875
2022-12-23T14:15:07.099Z,6.402587890625
2022-12-23T14:25:07.030Z,11.4990234375
2022-12-23T14:35:06.930Z,5.5999755859375
2022-12-23T14:45:06.949Z,4.998779296875
2022-12-23T14:55:29.729Z,3.1005859375
2022-12-23T15:05:06.839Z,6.79931640625
2022-12-23T15:15:06.624Z,5.999755859375
2022-12-23T15:25:06.580Z,6.298828125
2022-12-23T15:35:06.509Z,11.4990234375
2022-12-23T15:45:06.403Z,7.89794921875
2022-12-23T15:55:06.368Z,4.998779296875
2022-12-23T16:05:06.292Z,9.100341796875
2022-12-23T16:15:06.227Z,10.198974609375
2022-12-23T16:25:06.137Z,14.599609375
2022-12-23T16:35:06.052Z,11.102294921875
2022-12-23T16:45:05.982Z,5.0994873046875
2022-12-23T16:55:05.946Z,17.29736328125
2022-12-23T17:05:05.881Z,10.498046875
2022-12-23T17:15:05.809Z,10.498046875
2022-12-23T17:25:05.721Z,8.099365234375
2022-12-23T17:35:05.650Z,7.501220703125
2022-12-23T17:45:05.597Z,8.30078125
2022-12-23T17:55:05.518Z,8.89892578125
2022-12-23T18:05:05.441Z,7.89794921875
2022-12-23T18:15:05.445Z,7.80029296875
2022-12-23T18:25:05.295Z,10.198974609375
2022-12-23T18:35:05.227Z,9.3994140625
2022-12-23T18:45:05.136Z,5.5999755859375
2022-12-23T18:55:05.165Z,12.90283203125
2022-12-23T19:05:05.010Z,18.39599609375
2022-12-23T19:15:04.901Z,7.89794921875
2022-12-23T19:25:06.607Z,6.500244140625
2022-12-23T19:35:04.756Z,7.2998046875
2022-12-23T19:45:04.729Z,9.002685546875
2022-12-23T19:55:04.662Z,14.00146484375
2022-12-23T20:05:04.555Z,12.09716796875
2022-12-23T20:15:04.494Z,9.100341796875
2022-12-23T20:25:04.396Z,6.298828125
2022-12-23T20:35:04.345Z,7.70263671875
2022-12-23T20:45:04.261Z,11.602783203125
2022-12-23T20:55:04.221Z,14.794921875
2022-12-23T21:05:04.154Z,8.697509765625
2022-12-23T21:15:04.042Z,6.500244140625
2022-12-23T21:25:03.965Z,8.89892578125
2022-12-23T21:35:03.927Z,5.999755859375
2022-12-23T21:45:03.856Z,4.8004150390625
2022-12-23T21:55:03.748Z,4.5989990234375
2022-12-23T22:05:03.782Z,5.8990478515625
2022-12-23T22:15:09.508Z,4.0008544921875
2022-12-23T22:25:03.518Z,5.499267578125
2022-12-23T22:35:03.475Z,3.2989501953125
2022-12-23T22:45:03.400Z,3.7994384765625
2022-12-23T22:55:03.317Z,3.2989501953125
2022-12-23T23:05:06.512Z,3.5003662109375
2022-12-23T23:15:03.199Z,2.79998779296875
2022-12-23T23:25:03.127Z,3.2012939453125
2022-12-23T23:35:08.751Z,2.69927978515625
2022-12-23T23:45:03.032Z,3.69873046875
2022-12-23T23:55:02.867Z,2.60009765625
